Time;durP1;ratioP1;P1;durP2;ratioP2;P2;SDS_P1;SDS_P2;PMS_P1;PMS_P2;Temp;Humidity;BMP_temperature;BMP_pressure;BME280_temperature;BME280_humidity;BME280_pressure;Samples;Min_cycle;Max_cycle;Signal;HPM_P1;HPM_P2
2022/07/15 00:43:06;;;;;;;;;;;;;;;;;;;;;
2022/07/15 00:49:46;;;;;;;0.15;0.15;;;14.90;99.90;;;;;;6116100;23;20028;-84
2022/07/15 01:04:03;;;;;;;0.10;0.10;;;14.80;99.90;;;;;;5852350;24;20520;-86
2022/07/15 01:18:36;;;;;;;0.20;0.20;;;14.50;99.90;;;;;;5778434;24;20039;-86
2022/07/15 01:42:42;;;;;;;0.20;0.20;;;14.30;99.90;;;;;;6211247;22;20488;-84
2022/07/15 02:26:46;;;;;;;;;;;;;;;;;;;;;
2022/07/15 02:57:05;;;;;;;0.20;0.20;;;13.50;99.90;;;;;;6204983;22;20075;-84
2022/07/15 02:59:37;;;;;;;0.10;0.10;;;14.10;99.90;;;;;;6183618;23;20051;-85
2022/07/15 03:02:06;;;;;;;;;;;13.50;99.90;;;;;;6184621;23;20421;-84
2022/07/15 04:06:41;;;;;;;0.10;0.10;;;13.70;99.90;;;;;;5549563;22;15641497;-85
2022/07/15 04:09:27;;;;;;;;;;;;;;;;;;;;;
2022/07/15 04:23:14;;;;;;;0.20;0.20;;;14.00;99.90;;;;;;6066881;23;20048;-84
2022/07/15 04:58:20;;;;;;;0.10;0.10;;;14.20;99.90;;;;;;6129971;23;20024;-86
2022/07/15 05:01:02;;;;;;;0.20;0.20;;;14.20;99.90;;;;;;6172783;23;20032;-86
2022/07/15 05:03:44;;;;;;;0.10;0.10;;;15.30;99.90;;;;;;6091614;23;20610;-85
2022/07/15 05:41:47;;;;;;;0.10;0.10;;;14.80;99.90;;;;;;6206047;23;20019;-85
2022/07/15 05:48:37;;;;;;;0.10;0.10;;;14.80;99.90;;;;;;6240532;23;20031;-86
2022/07/15 06:19:37;;;;;;;0.10;0.10;;;15.20;99.90;;;;;;6241978;22;20032;-91
2022/07/15 06:22:55;;;;;;;0.10;0.10;;;15.30;99.90;;;;;;6214640;23;20012;-87
2022/07/15 06:25:30;;;;;;;0.20;0.20;;;15.20;99.90;;;;;;6175197;23;20082;-87
2022/07/15 06:27:56;;;;;;;0.15;0.15;;;15.10;99.90;;;;;;6214034;23;20012;-88
2022/07/15 06:30:22;;;;;;;0.10;0.10;;;15.10;99.90;;;;;;6216617;23;20091;-90
2022/07/15 06:32:47;;;;;;;0.17;0.17;;;15.40;99.90;;;;;;6242829;23;20392;-86
2022/07/15 06:35:13;;;;;;;0.10;0.10;;;15.10;99.90;;;;;;6260403;23;20435;-88
2022/07/15 06:37:39;;;;;;;0.10;0.10;;;15.60;99.90;;;;;;6222007;23;20086;-89
2022/07/15 06:40:06;;;;;;;0.10;0.10;;;15.20;99.90;;;;;;6248060;23;20015;-91
2022/07/15 06:42:32;;;;;;;0.10;0.10;;;15.20;99.90;;;;;;6215887;23;20023;-88
2022/07/15 06:49:05;;;;;;;0.15;0.15;;;16.10;99.90;;;;;;5975754;23;20054;-88
2022/07/15 06:51:31;;;;;;;0.20;0.20;;;16.20;99.90;;;;;;6075409;23;20018;-90
2022/07/15 06:54:24;;;;;;;0.10;0.10;;;15.30;99.90;;;;;;6222327;23;20471;-89
2022/07/15 06:57:21;;;;;;;0.10;0.10;;;15.30;99.90;;;;;;6214537;23;20046;-88
2022/07/15 07:02:24;;;;;;;0.10;0.10;;;15.40;99.90;;;;;;6213968;23;20020;-88
2022/07/15 07:04:49;;;;;;;0.20;0.20;;;16.20;99.90;;;;;;6185157;23;20024;-87
2022/07/15 07:07:18;;;;;;;0.20;0.20;;;15.50;99.90;;;;;;6186052;23;20034;-87
2022/07/15 07:10:19;;;;;;;0.20;0.20;;;15.40;99.90;;;;;;6212172;23;20013;-88
2022/07/15 07:13:09;;;;;;;0.13;0.13;;;15.40;99.90;;;;;;6040085;23;20019;-87
2022/07/15 07:19:16;;;;;;;0.10;0.10;;;15.40;99.90;;;;;;6065874;23;20046;-90
2022/07/15 07:21:41;;;;;;;0.20;0.20;;;16.60;99.90;;;;;;6039331;23;20542;-86
2022/07/15 07:24:31;;;;;;;0.20;0.20;;;15.50;99.90;;;;;;6059443;23;20101;-89
2022/07/15 07:27:11;;;;;;;0.10;0.10;;;15.20;99.90;;;;;;6037923;23;20084;-88
2022/07/15 07:29:43;;;;;;;0.20;0.20;;;15.60;99.90;;;;;;6101745;23;20024;-87
2022/07/15 07:32:09;;;;;;;0.10;0.10;;;16.20;99.90;;;;;;6187394;23;20043;-87
2022/07/15 07:34:34;;;;;;;0.20;0.20;;;15.70;99.90;;;;;;6216415;23;20021;-88
2022/07/15 07:37:00;;;;;;;0.10;0.10;;;15.80;99.90;;;;;;6217444;23;20622;-89
2022/07/15 07:40:00;;;;;;;0.20;0.20;;;15.90;99.90;;;;;;6210988;23;20337;-88
2022/07/15 07:42:31;;;;;;;0.20;0.20;;;16.20;99.90;;;;;;6185525;23;20023;-88
2022/07/15 07:49:44;;;;;;;0.20;0.20;;;15.80;99.90;;;;;;6096068;23;20026;-87
2022/07/15 07:56:10;;;;;;;0.20;0.20;;;15.40;99.90;;;;;;6084415;23;20061;-89
2022/07/15 07:58:55;;;;;;;0.10;0.10;;;17.20;99.90;;;;;;6185619;23;20433;-89
2022/07/15 08:01:21;;;;;;;0.20;0.20;;;16.30;99.90;;;;;;6212978;23;20025;-88
2022/07/15 08:03:46;;;;;;;0.20;0.20;;;16.20;99.90;;;;;;6215731;23;20477;-89
2022/07/15 08:10:35;;;;;;;0.20;0.20;;;16.50;99.90;;;;;;6122402;23;20057;-91
2022/07/15 08:13:01;;;;;;;;;;;17.10;99.90;;;;;;6214607;23;20032;-88
2022/07/15 08:15:28;;;;;;;0.15;0.15;;;16.70;99.90;;;;;;6188358;23;19912;-87
2022/07/15 08:18:31;;;;;;;0.20;0.20;;;17.80;99.90;;;;;;6217198;23;20413;-92
2022/07/15 08:21:15;;;;;;;0.10;0.10;;;16.80;99.90;;;;;;6218963;23;20456;-90
2022/07/15 08:24:16;;;;;;;0.20;0.20;;;16.80;99.90;;;;;;6192445;23;20072;-91
2022/07/15 08:26:42;;;;;;;0.20;0.20;;;17.10;99.90;;;;;;6214977;23;20017;-88
2022/07/15 08:29:09;;;;;;;0.17;0.17;;;17.00;99.90;;;;;;6213052;23;20023;-87
2022/07/15 08:31:39;;;;;;;0.20;0.20;;;17.00;99.90;;;;;;6215217;23;20481;-86
2022/07/15 08:34:23;;;;;;;0.10;0.10;;;17.10;99.90;;;;;;6218369;23;20467;-87
2022/07/15 08:36:55;;;;;;;0.20;0.20;;;16.90;99.90;;;;;;6227342;23;20095;-87
2022/07/15 08:39:26;;;;;;;0.20;0.20;;;17.40;99.90;;;;;;6188140;23;20012;-87
2022/07/15 08:41:52;;;;;;;0.20;0.20;;;17.20;99.90;;;;;;6187615;23;20411;-87
2022/07/15 08:44:18;;;;;;;0.20;0.20;;;17.30;99.90;;;;;;6212578;23;20084;-87
2022/07/15 08:46:47;;;;;;;0.20;0.20;;;17.30;99.90;;;;;;6186635;23;20098;-87
2022/07/15 08:49:51;;;;;;;0.20;0.20;;;17.40;99.90;;;;;;6186364;23;20345;-87
2022/07/15 08:52:18;;;;;;;0.20;0.20;;;18.50;99.90;;;;;;6214645;23;20017;-88
2022/07/15 08:54:47;;;;;;;0.20;0.20;;;18.00;99.90;;;;;;6186584;23;20027;-86
2022/07/15 08:57:14;;;;;;;0.17;0.17;;;17.50;99.90;;;;;;6185793;23;20023;-89
2022/07/15 09:01:42;;;;;;;;;;;;;;;;;;;;;
2022/07/15 09:04:04;;;;;;;0.20;0.20;;;17.50;99.90;;;;;;6210752;23;20022;-86
2022/07/15 09:06:40;;;;;;;0.10;0.10;;;17.40;99.90;;;;;;6233597;23;20056;-86
2022/07/15 09:09:25;;;;;;;0.20;0.20;;;17.30;99.90;;;;;;6236748;23;20105;-84
2022/07/15 09:12:06;;;;;;;0.20;0.20;;;17.40;99.90;;;;;;6230003;23;20048;-87
2022/07/15 09:14:47;;;;;;;0.10;0.10;;;17.50;99.90;;;;;;6205000;23;20031;-86
2022/07/15 09:20:14;;;;;;;0.20;0.20;;;17.80;99.90;;;;;;6185775;23;20087;-87
2022/07/15 09:23:20;;;;;;;0.10;0.10;;;18.80;99.90;;;;;;6186346;23;20280;-87
2022/07/15 09:26:28;;;;;;;0.20;0.20;;;19.00;99.90;;;;;;6210415;23;20042;-86
2022/07/15 09:36:01;;;;;;;0.20;0.20;;;17.80;99.90;;;;;;6212094;23;20021;-87
2022/07/15 09:38:00;;;;;;;0.10;0.10;;;18.10;99.90;;;;;;6183606;23;20025;-87
2022/07/15 09:40:52;;;;;;;0.20;0.20;;;17.90;99.90;;;;;;6219227;23;20020;-87
2022/07/15 09:43:54;;;;;;;0.20;0.20;;;16.60;99.90;;;;;;6211526;23;20115;-86
2022/07/15 09:46:22;;;;;;;0.20;0.20;;;17.40;99.90;;;;;;6186429;23;20024;-87
2022/07/15 09:48:50;;;;;;;0.20;0.20;;;18.00;99.90;;;;;;6213323;23;20020;-87
2022/07/15 09:51:16;;;;;;;0.20;0.20;;;18.10;99.90;;;;;;6185647;23;20437;-85
2022/07/15 09:54:00;;;;;;;0.20;0.20;;;18.10;99.90;;;;;;6211405;23;20028;-83
2022/07/15 09:56:37;;;;;;;0.17;0.17;;;18.20;99.90;;;;;;6228392;23;20036;-84
2022/07/15 09:59:03;;;;;;;0.15;0.15;;;18.30;99.90;;;;;;6118226;23;20033;-84
2022/07/15 10:01:30;;;;;;;0.10;0.10;;;18.30;99.90;;;;;;6095616;23;20384;-83
2022/07/15 10:03:56;;;;;;;0.20;0.20;;;18.30;99.90;;;;;;6093750;23;20018;-86
2022/07/15 10:06:46;;;;;;;0.20;0.20;;;18.40;99.90;;;;;;6117088;23;20117;-84
2022/07/15 10:09:14;;;;;;;0.20;0.20;;;18.20;99.90;;;;;;6094210;23;20117;-85
2022/07/15 10:11:49;;;;;;;0.15;0.15;;;18.50;99.90;;;;;;6118596;23;20595;-84
2022/07/15 10:14:23;;;;;;;0.10;0.10;;;18.50;99.90;;;;;;6092638;23;20163;-89
2022/07/15 10:16:55;;;;;;;0.20;0.20;;;17.70;99.90;;;;;;6094647;23;20036;-87
2022/07/15 10:19:39;;;;;;;0.20;0.20;;;18.90;99.90;;;;;;6093724;23;20457;-85
2022/07/15 10:22:35;;;;;;;0.10;0.10;;;18.60;99.90;;;;;;6094103;23;20391;-85
2022/07/15 10:25:25;;;;;;;0.13;0.13;;;18.60;99.90;;;;;;6119395;23;20033;-86
2022/07/15 10:28:18;;;;;;;0.10;0.10;;;18.50;99.90;;;;;;6118823;23;20088;-84
2022/07/15 10:31:26;;;;;;;0.20;0.20;;;19.90;99.90;;;;;;6191343;23;20464;-85
2022/07/15 10:34:04;;;;;;;0.20;0.20;;;18.90;99.90;;;;;;6067904;23;20096;-85
2022/07/15 10:36:49;;;;;;;0.20;0.20;;;19.40;99.90;;;;;;6098282;23;20022;-85
2022/07/15 10:39:19;;;;;;;0.20;0.20;;;19.10;99.90;;;;;;6175437;23;20037;-86
2022/07/15 10:42:04;;;;;;;0.20;0.20;;;19.10;99.90;;;;;;6211415;23;20012;-88
2022/07/15 10:44:47;;;;;;;0.10;0.10;;;19.10;99.90;;;;;;6210045;23;20112;-89
2022/07/15 10:47:16;;;;;;;0.10;0.10;;;19.10;99.90;;;;;;6211339;23;20073;-85
2022/07/15 10:49:47;;;;;;;0.10;0.10;;;19.00;99.90;;;;;;6212515;23;20099;-91
2022/07/15 10:52:28;;;;;;;0.10;0.10;;;18.90;99.90;;;;;;6213316;23;20062;-87
2022/07/15 10:54:58;;;;;;;0.20;0.20;;;18.80;99.90;;;;;;6211681;23;20024;-86
2022/07/15 10:57:42;;;;;;;0.20;0.20;;;18.70;99.90;;;;;;6210267;23;20047;-85
2022/07/15 11:00:29;;;;;;;0.10;0.10;;;18.70;99.90;;;;;;6209926;23;20263;-84
2022/07/15 11:03:18;;;;;;;0.20;0.20;;;18.50;99.90;;;;;;6211179;23;20106;-86
2022/07/15 11:05:53;;;;;;;0.15;0.15;;;18.50;99.90;;;;;;6184125;23;20020;-87
2022/07/15 11:08:33;;;;;;;0.17;0.17;;;18.40;99.90;;;;;;6186154;23;20104;-87
2022/07/15 11:11:14;;;;;;;0.20;0.20;;;18.30;99.90;;;;;;6209549;23;20024;-86
2022/07/15 11:13:50;;;;;;;0.20;0.20;;;18.30;99.90;;;;;;6183156;23;20020;-85
2022/07/15 11:16:19;;;;;;;0.10;0.10;;;18.30;99.90;;;;;;6200623;23;20021;-86
2022/07/15 11:18:53;;;;;;;0.20;0.20;;;18.30;99.90;;;;;;6212310;23;20047;-86
2022/07/15 11:21:22;;;;;;;0.10;0.10;;;18.30;99.90;;;;;;6211812;23;20946;-85
2022/07/15 11:23:49;;;;;;;0.13;0.13;;;18.30;99.90;;;;;;6183764;23;20029;-87
2022/07/15 11:26:15;;;;;;;0.10;0.10;;;18.30;99.90;;;;;;6184405;23;20059;-87
2022/07/15 11:28:54;;;;;;;0.20;0.20;;;18.30;99.90;;;;;;6182752;23;20024;-86
2022/07/15 11:31:20;;;;;;;0.20;0.20;;;18.40;99.90;;;;;;6180455;23;20024;-85
2022/07/15 11:33:46;;;;;;;0.10;0.10;;;18.40;99.90;;;;;;6179781;23;20438;-86
2022/07/15 11:36:21;;;;;;;0.20;0.20;;;18.50;99.90;;;;;;6181284;23;20392;-87
2022/07/15 11:38:47;;;;;;;0.10;0.10;;;18.60;99.90;;;;;;6210878;23;20044;-87
2022/07/15 11:46:48;;;;;;;0.20;0.20;;;18.80;99.90;;;;;;6214546;23;20028;-87
2022/07/15 11:49:42;;;;;;;0.20;0.20;;;18.90;99.90;;;;;;6189565;23;20028;-85
2022/07/15 11:52:21;;;;;;;0.10;0.10;;;19.00;99.90;;;;;;6193316;23;20095;-86
2022/07/15 11:54:57;;;;;;;0.10;0.10;;;19.10;99.90;;;;;;6197137;23;20032;-89
2022/07/15 12:03:55;;;;;;;0.20;0.20;;;19.20;99.90;;;;;;6181953;23;20091;-90
2022/07/15 12:06:24;;;;;;;0.13;0.13;;;19.20;99.90;;;;;;6167934;23;20077;-92
2022/07/15 12:08:49;;;;;;;0.20;0.20;;;19.20;99.90;;;;;;6158797;23;20405;-85
2022/07/15 12:14:25;;;;;;;0.10;0.10;;;19.20;99.90;;;;;;6142824;23;20036;-87
2022/07/15 12:16:56;;;;;;;0.20;0.20;;;19.50;99.90;;;;;;6157418;23;20056;-85
2022/07/15 12:19:29;;;;;;;0.20;0.20;;;19.20;99.90;;;;;;6184068;23;20013;-90
2022/07/15 12:21:58;;;;;;;0.20;0.20;;;19.20;99.90;;;;;;6157913;23;20021;-90
2022/07/15 12:24:26;;;;;;;0.13;0.13;;;19.20;99.90;;;;;;6158522;23;20535;-89
2022/07/15 12:26:52;;;;;;;0.20;0.20;;;19.10;99.90;;;;;;6156587;23;20130;-87
2022/07/15 12:36:40;;;;;;;0.20;0.20;;;18.40;99.90;;;;;;6138258;23;20588;-89
2022/07/15 12:50:51;;;;;;;0.13;0.13;;;18.90;99.90;;;;;;5942972;24;20489;-90
2022/07/15 13:05:46;;;;;;;0.20;0.20;;;18.40;99.90;;;;;;5896195;24;20601;-90
2022/07/15 13:15:02;;;;;;;0.20;0.20;;;18.70;99.90;;;;;;6230182;23;20074;-87
2022/07/15 13:17:27;;;;;;;0.20;0.20;;;18.80;99.90;;;;;;6217834;23;20025;-89
2022/07/15 13:20:00;;;;;;;0.10;0.10;;;18.80;99.90;;;;;;6212057;23;20031;-88
2022/07/15 13:22:35;;;;;;;0.10;0.10;;;18.90;99.90;;;;;;6210683;23;20415;-86
2022/07/15 13:25:08;;;;;;;0.10;0.10;;;18.90;99.90;;;;;;6211788;23;20086;-88
2022/07/15 13:27:36;;;;;;;0.20;0.20;;;18.80;99.90;;;;;;6214236;23;20064;-90
2022/07/15 13:37:40;;;;;;;0.20;0.20;;;18.30;99.90;;;;;;6136834;23;20021;-92
2022/07/15 14:10:34;;;;;;;0.20;0.20;;;18.90;99.90;;;;;;5893692;24;20040;-91
2022/07/15 14:20:41;;;;;;;0.20;0.20;;;19.90;99.90;;;;;;5952541;23;20032;-88
2022/07/15 14:30:53;;;;;;;0.13;0.13;;;19.90;99.90;;;;;;6125070;23;20065;-87
2022/07/15 14:33:27;;;;;;;0.20;0.20;;;19.90;99.90;;;;;;6065355;23;20022;-87
2022/07/15 14:36:15;;;;;;;0.20;0.20;;;19.70;99.90;;;;;;6138213;23;20425;-87
2022/07/15 14:38:44;;;;;;;0.10;0.10;;;20.10;99.90;;;;;;6217086;23;20020;-89
2022/07/15 14:41:24;;;;;;;0.20;0.20;;;20.20;99.90;;;;;;6219780;23;20182;-90
2022/07/15 14:55:45;;;;;;;;;;;;;;;;;;;;;
2022/07/15 14:58:44;;;;;;;0.20;0.20;;;20.30;99.90;;;;;;5883927;24;20024;-87
2022/07/15 15:01:19;;;;;;;0.20;0.20;;;20.20;99.90;;;;;;5954474;24;20426;-87
2022/07/15 15:07:46;;;;;;;0.15;0.15;;;20.20;99.90;;;;;;5976350;24;20104;-87
2022/07/15 15:10:20;;;;;;;0.20;0.20;;;20.10;99.90;;;;;;6018063;23;20018;-86
2022/07/15 15:16:53;;;;;;;0.20;0.20;;;20.20;99.90;;;;;;6150631;23;20082;-86
2022/07/15 15:26:26;;;;;;;0.17;0.17;;;20.00;99.90;;;;;;6041382;23;20031;-87
2022/07/15 15:28:56;;;;;;;0.20;0.20;;;20.00;99.90;;;;;;6177584;23;20021;-87
2022/07/15 15:31:22;;;;;;;0.20;0.20;;;20.40;99.90;;;;;;6154395;23;20100;-87
2022/07/15 15:33:48;;;;;;;0.20;0.20;;;20.10;99.90;;;;;;6154868;23;20121;-87
2022/07/15 15:36:15;;;;;;;0.20;0.20;;;20.20;99.90;;;;;;6181885;23;20191;-88
2022/07/15 15:38:41;;;;;;;0.20;0.20;;;20.30;99.90;;;;;;6152632;23;20016;-85
2022/07/15 15:41:07;;;;;;;0.20;0.20;;;20.40;99.90;;;;;;6155320;23;20075;-86
2022/07/15 15:47:23;;;;;;;0.20;0.20;;;20.70;99.90;;;;;;6143043;23;20111;-87
2022/07/15 15:50:37;;;;;;;0.20;0.20;;;20.70;99.90;;;;;;6184243;23;20354;-87
2022/07/15 15:53:21;;;;;;;0.20;0.20;;;20.80;99.90;;;;;;6182223;23;20023;-85
2022/07/15 15:55:46;;;;;;;0.20;0.20;;;20.60;99.90;;;;;;6171663;23;20013;-85
2022/07/15 15:58:21;;;;;;;0.20;0.20;;;20.60;99.90;;;;;;6153385;23;20017;-86
2022/07/15 16:03:44;;;;;;;0.13;0.13;;;20.50;99.90;;;;;;6156191;23;20021;-87
2022/07/15 16:06:10;;;;;;;0.20;0.20;;;20.40;99.90;;;;;;6183739;23;20044;-88
2022/07/15 16:08:35;;;;;;;0.20;0.20;;;20.80;99.90;;;;;;6153286;23;20084;-87
2022/07/15 16:11:01;;;;;;;0.20;0.20;;;20.20;99.90;;;;;;6155825;23;20013;-86
2022/07/15 16:14:02;;;;;;;0.20;0.20;;;20.20;99.90;;;;;;6154394;23;20013;-87
2022/07/15 16:16:54;;;;;;;0.20;0.20;;;20.20;99.90;;;;;;6208130;23;20053;-84
2022/07/15 16:19:20;;;;;;;0.20;0.20;;;19.80;99.90;;;;;;6200362;23;20032;-86
2022/07/15 16:24:36;;;;;;;0.20;0.20;;;20.30;99.90;;;;;;6190446;23;20100;-90
2022/07/15 16:27:02;;;;;;;0.10;0.10;;;20.20;99.90;;;;;;6211526;23;20079;-85
2022/07/15 16:29:27;;;;;;;0.20;0.20;;;20.10;99.90;;;;;;6211111;23;20016;-86
2022/07/15 16:31:53;;;;;;;0.20;0.20;;;20.00;99.90;;;;;;6211647;23;20099;-89
2022/07/15 16:34:25;;;;;;;0.20;0.20;;;20.40;99.90;;;;;;6217737;23;20016;-86
2022/07/15 16:36:51;;;;;;;0.20;0.20;;;19.60;99.90;;;;;;6218116;23;20020;-87
2022/07/15 16:39:16;;;;;;;0.20;0.20;;;19.70;99.90;;;;;;6211845;23;20449;-87
2022/07/15 16:41:42;;;;;;;0.20;0.20;;;19.60;99.90;;;;;;6185904;23;20067;-86
2022/07/15 16:44:14;;;;;;;0.20;0.20;;;19.60;99.90;;;;;;6186207;23;20023;-86
2022/07/15 16:46:40;;;;;;;0.20;0.20;;;20.20;99.90;;;;;;6219364;23;20036;-87
2022/07/15 16:49:06;;;;;;;0.10;0.10;;;19.40;99.90;;;;;;6214812;23;20036;-88
2022/07/15 16:51:37;;;;;;;0.20;0.20;;;19.30;99.90;;;;;;6188784;23;20099;-87
2022/07/15 16:54:04;;;;;;;0.20;0.20;;;19.30;99.90;;;;;;6215063;23;20528;-87
2022/07/15 16:56:29;;;;;;;0.20;0.20;;;19.20;99.90;;;;;;6218579;23;20021;-87
2022/07/15 16:58:55;;;;;;;0.20;0.20;;;19.10;99.90;;;;;;6189550;23;20111;-86
2022/07/15 17:01:21;;;;;;;0.20;0.20;;;19.10;99.90;;;;;;6211998;23;20345;-87
2022/07/15 17:03:47;;;;;;;0.20;0.20;;;19.10;99.90;;;;;;6211306;23;20096;-87
2022/07/15 17:06:21;;;;;;;0.10;0.10;;;19.10;99.90;;;;;;6213520;23;20044;-85
2022/07/15 17:08:46;;;;;;;0.20;0.20;;;19.00;99.90;;;;;;6211885;23;20031;-86
2022/07/15 17:11:12;;;;;;;0.10;0.10;;;18.90;99.90;;;;;;6186226;23;20040;-86
2022/07/15 17:13:38;;;;;;;0.20;0.20;;;18.90;99.90;;;;;;6191812;23;20033;-88
2022/07/15 17:16:04;;;;;;;0.20;0.20;;;18.90;99.90;;;;;;6224181;23;20017;-86
2022/07/15 17:18:30;;;;;;;0.13;0.13;;;18.90;99.90;;;;;;6185392;23;20017;-86
2022/07/15 17:20:56;;;;;;;0.20;0.20;;;18.90;99.90;;;;;;6212022;23;20024;-85
2022/07/15 17:23:33;;;;;;;0.10;0.10;;;18.90;99.90;;;;;;6211420;23;20045;-87
2022/07/15 17:25:59;;;;;;;0.20;0.20;;;18.90;99.90;;;;;;6185790;23;20029;-87
2022/07/15 17:28:24;;;;;;;0.10;0.10;;;18.80;99.90;;;;;;6184045;23;20100;-86
2022/07/15 17:30:50;;;;;;;0.10;0.10;;;18.80;99.90;;;;;;6211883;23;20012;-87
2022/07/15 17:33:16;;;;;;;0.20;0.20;;;18.80;99.90;;;;;;6212767;23;20020;-86
2022/07/15 17:35:41;;;;;;;0.10;0.10;;;18.80;99.90;;;;;;6185738;23;20025;-86
2022/07/15 17:38:07;;;;;;;0.20;0.20;;;18.80;99.90;;;;;;6183260;23;20020;-86
2022/07/15 17:40:51;;;;;;;0.10;0.10;;;18.70;99.90;;;;;;6212702;23;20376;-86
2022/07/15 17:43:19;;;;;;;0.17;0.17;;;18.80;99.90;;;;;;6183165;23;20082;-85
2022/07/15 17:45:45;;;;;;;0.10;0.10;;;18.70;99.90;;;;;;6211150;23;20028;-87
2022/07/15 17:48:38;;;;;;;0.20;0.20;;;18.70;99.90;;;;;;6186027;23;20372;-88
2022/07/15 17:51:05;;;;;;;0.20;0.20;;;18.70;99.90;;;;;;6183810;23;20095;-86
2022/07/15 17:53:35;;;;;;;0.20;0.20;;;18.70;99.90;;;;;;6211916;23;20429;-87
2022/07/15 17:56:01;;;;;;;;;;;18.70;99.90;;;;;;6228411;23;20098;-85
2022/07/15 17:58:30;;;;;;;0.10;0.10;;;19.30;99.90;;;;;;6211128;23;20267;-85
2022/07/15 18:00:56;;;;;;;0.20;0.20;;;18.90;99.90;;;;;;6185656;23;20024;-86
2022/07/15 18:03:23;;;;;;;0.20;0.20;;;18.30;99.90;;;;;;6211803;23;20051;-87
2022/07/15 18:05:49;;;;;;;0.10;0.10;;;18.70;99.90;;;;;;6211013;23;20352;-87
2022/07/15 18:08:15;;;;;;;0.20;0.20;;;18.70;99.90;;;;;;6211733;23;20332;-87
2022/07/15 18:10:42;;;;;;;0.10;0.10;;;18.70;99.90;;;;;;6212235;23;20021;-87
2022/07/15 18:13:16;;;;;;;0.10;0.10;;;18.70;99.90;;;;;;6183229;23;20082;-86
2022/07/15 18:16:11;;;;;;;0.20;0.20;;;18.70;99.90;;;;;;6211915;23;20013;-89
2022/07/15 18:18:37;;;;;;;0.17;0.17;;;19.30;99.90;;;;;;6183267;23;20058;-87
2022/07/15 18:21:02;;;;;;;0.10;0.10;;;18.70;99.90;;;;;;6184680;23;20020;-86
2022/07/15 18:23:28;;;;;;;0.20;0.20;;;18.70;99.90;;;;;;6185335;23;20301;-90
2022/07/15 18:25:54;;;;;;;0.10;0.10;;;18.70;99.90;;;;;;6184217;23;20298;-90
2022/07/15 18:28:20;;;;;;;0.13;0.13;;;18.60;99.90;;;;;;6183086;23;20028;-85
2022/07/15 18:30:48;;;;;;;0.20;0.20;;;19.30;99.90;;;;;;6211683;23;20453;-88
2022/07/15 18:33:14;;;;;;;0.20;0.20;;;18.60;99.90;;;;;;6212391;23;20020;-87
2022/07/15 18:35:45;;;;;;;0.20;0.20;;;18.50;99.90;;;;;;6226493;23;20028;-87
2022/07/15 18:38:26;;;;;;;0.20;0.20;;;19.20;99.90;;;;;;6210765;23;20031;-88
2022/07/15 18:41:06;;;;;;;0.10;0.10;;;18.50;99.90;;;;;;6213945;23;20349;-88
2022/07/15 18:43:33;;;;;;;0.20;0.20;;;18.40;99.90;;;;;;6210357;23;20020;-87
2022/07/15 18:45:59;;;;;;;0.20;0.20;;;18.40;99.90;;;;;;6212076;23;20016;-88
2022/07/15 18:48:25;;;;;;;0.10;0.10;;;18.40;99.90;;;;;;6211018;23;20067;-88
2022/07/15 18:50:51;;;;;;;0.20;0.20;;;18.30;99.90;;;;;;6212098;23;20008;-87
2022/07/15 18:53:18;;;;;;;0.20;0.20;;;18.30;99.90;;;;;;6210434;23;20021;-86
2022/07/15 18:55:44;;;;;;;0.20;0.20;;;18.30;99.90;;;;;;6211378;23;20017;-86
2022/07/15 18:58:11;;;;;;;0.10;0.10;;;18.30;99.90;;;;;;6208482;23;20492;-87
2022/07/15 19:00:53;;;;;;;;;;;;;;;;;;;;;
2022/07/15 19:03:34;;;;;;;0.10;0.10;;;18.20;99.90;;;;;;6210733;23;20012;-87
2022/07/15 19:06:00;;;;;;;0.20;0.20;;;18.20;99.90;;;;;;6209848;23;20024;-87
2022/07/15 19:08:26;;;;;;;0.10;0.10;;;18.20;99.90;;;;;;6207853;23;20071;-87
2022/07/15 19:10:52;;;;;;;0.20;0.20;;;18.30;99.90;;;;;;6211905;23;20013;-87
2022/07/15 19:13:22;;;;;;;0.20;0.20;;;18.20;99.90;;;;;;6212524;23;20048;-86
2022/07/15 19:15:49;;;;;;;0.10;0.10;;;18.10;99.90;;;;;;6202411;23;20020;-84
2022/07/15 19:18:15;;;;;;;0.20;0.20;;;18.10;99.90;;;;;;6219885;23;20020;-85
2022/07/15 19:20:41;;;;;;;0.10;0.10;;;18.10;99.90;;;;;;6212573;23;20020;-86
2022/07/15 19:23:07;;;;;;;0.20;0.20;;;18.10;99.90;;;;;;6209441;23;20012;-84
2022/07/15 19:25:36;;;;;;;0.10;0.10;;;18.00;99.90;;;;;;6210067;23;20448;-84
2022/07/15 19:28:11;;;;;;;0.13;0.13;;;18.00;99.90;;;;;;6210425;23;20059;-85
2022/07/15 19:30:37;;;;;;;0.10;0.10;;;18.10;99.90;;;;;;6210477;23;20025;-87
2022/07/15 19:33:03;;;;;;;0.10;0.10;;;18.00;99.90;;;;;;6184418;23;20518;-87
2022/07/15 19:35:33;;;;;;;0.10;0.10;;;18.00;99.90;;;;;;6210425;23;20333;-85
2022/07/15 19:38:04;;;;;;;0.10;0.10;;;18.00;99.90;;;;;;6183268;23;20317;-86
2022/07/15 19:40:30;;;;;;;0.20;0.20;;;18.70;99.90;;;;;;6212319;23;20012;-88
2022/07/15 19:42:59;;;;;;;0.20;0.20;;;18.00;99.90;;;;;;6209727;23;20124;-86
2022/07/15 19:45:26;;;;;;;0.10;0.10;;;17.90;99.90;;;;;;6211638;23;20051;-86
2022/07/15 19:47:52;;;;;;;0.20;0.20;;;18.20;99.90;;;;;;6217916;23;20044;-87
2022/07/15 19:50:24;;;;;;;0.20;0.20;;;18.50;99.90;;;;;;6235859;23;20005;-85
2022/07/15 19:52:50;;;;;;;0.20;0.20;;;17.80;99.90;;;;;;6232991;23;20017;-87
2022/07/15 19:55:15;;;;;;;0.20;0.20;;;17.70;99.90;;;;;;6236136;22;20044;-87
2022/07/15 19:57:42;;;;;;;0.20;0.20;;;17.80;99.90;;;;;;6219825;23;20017;-85
2022/07/15 20:00:26;;;;;;;0.13;0.13;;;17.80;99.90;;;;;;6211856;23;20020;-85
2022/07/15 20:02:57;;;;;;;0.20;0.20;;;17.70;99.90;;;;;;6208294;23;20120;-86
2022/07/15 20:05:29;;;;;;;0.20;0.20;;;17.60;99.90;;;;;;6210078;23;20110;-86
2022/07/15 20:07:56;;;;;;;0.20;0.20;;;17.60;99.90;;;;;;6210861;23;20063;-86
2022/07/15 20:10:22;;;;;;;0.20;0.20;;;17.50;99.90;;;;;;6185712;23;20016;-86
2022/07/15 20:12:54;;;;;;;0.17;0.17;;;17.60;99.90;;;;;;6185684;23;20021;-84
2022/07/15 20:15:30;;;;;;;0.20;0.20;;;17.50;99.90;;;;;;6186330;23;20012;-89
2022/07/15 20:18:07;;;;;;;0.10;0.10;;;17.50;99.90;;;;;;6210955;23;20094;-84
2022/07/15 20:20:33;;;;;;;0.10;0.10;;;17.50;99.90;;;;;;6214523;23;20031;-88
2022/07/15 20:22:59;;;;;;;0.15;0.15;;;17.40;99.90;;;;;;6187530;23;20025;-87
2022/07/15 20:25:41;;;;;;;0.13;0.13;;;18.00;99.90;;;;;;6214294;23;20040;-86
2022/07/15 20:28:07;;;;;;;0.10;0.10;;;17.40;99.90;;;;;;6212869;23;20751;-85
2022/07/15 20:30:32;;;;;;;0.10;0.10;;;17.40;99.90;;;;;;6213079;23;20016;-84
2022/07/15 20:32:58;;;;;;;0.17;0.17;;;17.30;99.90;;;;;;6185096;23;20027;-86
2022/07/15 20:35:26;;;;;;;0.20;0.20;;;17.30;99.90;;;;;;6225280;22;20068;-86
2022/07/15 20:37:58;;;;;;;0.10;0.10;;;17.20;99.90;;;;;;6188322;23;20016;-87
2022/07/15 20:40:26;;;;;;;0.10;0.10;;;17.80;99.90;;;;;;6212463;23;20100;-85
2022/07/15 20:42:51;;;;;;;0.10;0.10;;;17.90;99.90;;;;;;6184696;23;20158;-85
2022/07/15 20:45:17;;;;;;;0.20;0.20;;;17.10;99.90;;;;;;6183645;23;20091;-86
2022/07/15 20:47:54;;;;;;;0.20;0.20;;;17.20;99.90;;;;;;6212303;23;20021;-87
2022/07/15 20:50:26;;;;;;;0.20;0.20;;;16.80;99.90;;;;;;6186463;23;20104;-86
2022/07/15 20:52:52;;;;;;;0.10;0.10;;;17.10;99.90;;;;;;6185975;23;20303;-85
2022/07/15 20:55:27;;;;;;;0.20;0.20;;;17.10;99.90;;;;;;6186670;23;20019;-88
2022/07/15 20:57:53;;;;;;;0.20;0.20;;;17.00;99.90;;;;;;6211809;23;20017;-86
2022/07/15 21:00:18;;;;;;;0.10;0.10;;;17.00;99.90;;;;;;6211161;23;20021;-86
2022/07/15 21:02:46;;;;;;;0.17;0.17;;;17.00;99.90;;;;;;6212987;23;20016;-87
2022/07/15 21:05:15;;;;;;;0.10;0.10;;;17.00;99.90;;;;;;6185866;23;20124;-85
2022/07/15 21:07:56;;;;;;;0.20;0.20;;;17.00;99.90;;;;;;6213271;23;20052;-89
2022/07/15 21:10:55;;;;;;;0.10;0.10;;;16.80;99.90;;;;;;6212207;23;20416;-86
2022/07/15 21:13:36;;;;;;;;;;;;;;;;;;;;;
2022/07/15 21:16:13;;;;;;;0.20;0.20;;;16.90;99.90;;;;;;6224933;23;20051;-88
2022/07/15 21:18:39;;;;;;;0.20;0.20;;;16.80;99.90;;;;;;6186937;23;20024;-90
2022/07/15 21:21:05;;;;;;;0.10;0.10;;;17.40;99.90;;;;;;6185498;23;20464;-86
2022/07/15 21:23:39;;;;;;;0.10;0.10;;;16.70;99.90;;;;;;6185051;23;20024;-90
2022/07/15 21:28:49;;;;;;;0.10;0.10;;;16.60;99.90;;;;;;6209882;23;20035;-87
2022/07/15 21:31:15;;;;;;;0.10;0.10;;;16.60;99.90;;;;;;6187391;23;20099;-87
2022/07/15 21:33:41;;;;;;;0.10;0.10;;;16.60;99.90;;;;;;6212531;23;20083;-87
2022/07/15 21:36:06;;;;;;;0.20;0.20;;;16.30;99.90;;;;;;6186023;23;20025;-87
2022/07/15 21:38:47;;;;;;;0.20;0.20;;;16.60;99.90;;;;;;6214528;23;20381;-90
2022/07/15 21:41:14;;;;;;;0.20;0.20;;;16.60;99.90;;;;;;6220522;23;20040;-87
2022/07/15 21:43:48;;;;;;;0.15;0.15;;;16.60;99.90;;;;;;6195695;23;20028;-87
2022/07/15 21:46:16;;;;;;;0.10;0.10;;;16.50;99.90;;;;;;6213265;23;20094;-87
2022/07/15 21:48:42;;;;;;;0.10;0.10;;;16.50;99.90;;;;;;6213251;23;20020;-88
2022/07/15 21:51:10;;;;;;;0.20;0.20;;;16.50;99.90;;;;;;6212127;23;20084;-87
2022/07/15 21:53:36;;;;;;;0.15;0.15;;;16.50;99.90;;;;;;6212911;23;20031;-90
2022/07/15 21:56:07;;;;;;;0.15;0.15;;;16.70;99.90;;;;;;6228583;23;20041;-87
2022/07/15 21:58:33;;;;;;;0.25;0.25;;;16.50;99.90;;;;;;6211170;23;20143;-87